createdAt,value
2022-07-28T00:01:34.677Z,13.60
2022-07-28T00:04:01.634Z,13.60
2022-07-28T00:06:28.502Z,13.60
2022-07-28T00:08:55.518Z,13.50
2022-07-28T00:11:23.151Z,13.50
2022-07-28T00:13:50.168Z,13.50
2022-07-28T00:16:17.260Z,13.40
2022-07-28T00:18:44.191Z,13.30
2022-07-28T00:21:11.353Z,13.30
2022-07-28T00:23:39.805Z,13.30
2022-07-28T00:26:08.861Z,13.20
2022-07-28T00:28:36.836Z,13.20
2022-07-28T00:31:05.535Z,13.20
2022-07-28T00:33:35.740Z,13.20
2022-07-28T00:36:02.688Z,13.10
2022-07-28T00:38:29.718Z,13.10
2022-07-28T00:41:12.251Z,13.00
2022-07-28T00:43:43.635Z,13.00
2022-07-28T00:46:11.234Z,12.90
2022-07-28T00:48:44.430Z,12.90
2022-07-28T00:51:12.119Z,12.80
2022-07-28T00:53:39.943Z,12.80
2022-07-28T00:56:08.177Z,12.80
2022-07-28T00:58:36.601Z,12.80
2022-07-28T01:01:08.313Z,12.80
2022-07-28T01:03:39.381Z,12.70
2022-07-28T01:06:30.864Z,12.70
2022-07-28T01:09:12.424Z,12.70
2022-07-28T01:11:45.882Z,12.60
2022-07-28T01:14:25.156Z,12.60
2022-07-28T01:17:12.487Z,12.60
2022-07-28T01:20:06.825Z,12.60
2022-07-28T01:22:39.965Z,12.60
2022-07-28T01:25:34.548Z,12.60
2022-07-28T01:28:28.453Z,12.50
2022-07-28T01:30:58.783Z,12.50
2022-07-28T01:33:33.758Z,12.50
2022-07-28T01:36:18.983Z,12.50
2022-07-28T01:38:47.600Z,12.50
2022-07-28T01:41:27.806Z,12.50
2022-07-28T01:44:05.999Z,12.50
2022-07-28T01:46:34.025Z,12.50
2022-07-28T01:49:02.482Z,12.50
2022-07-28T01:51:32.385Z,12.50
2022-07-28T01:54:01.906Z,12.60
2022-07-28T01:56:30.773Z,12.60
2022-07-28T01:59:00.043Z,12.60
2022-07-28T02:01:27.935Z,12.60
2022-07-28T02:03:57.959Z,12.60
2022-07-28T02:06:26.309Z,12.60
2022-07-28T02:08:54.768Z,12.70
2022-07-28T02:11:40.789Z,12.70
2022-07-28T02:14:20.978Z,12.70
2022-07-28T02:16:54.312Z,12.70
2022-07-28T02:19:22.279Z,12.70
2022-07-28T02:21:50.981Z,12.70
2022-07-28T02:24:22.267Z,12.70
2022-07-28T02:26:53.583Z,12.70
2022-07-28T02:29:49.247Z,12.80
2022-07-28T02:32:36.931Z,12.80
2022-07-28T02:35:25.163Z,12.80
2022-07-28T02:38:06.585Z,12.80
2022-07-28T02:40:38.809Z,12.80
2022-07-28T02:43:10.942Z,12.80
2022-07-28T02:45:41.734Z,12.80
2022-07-28T02:48:12.255Z,12.80
2022-07-28T02:50:41.111Z,12.80
2022-07-28T02:53:15.013Z,12.90
2022-07-28T02:55:47.129Z,12.90
2022-07-28T02:58:16.201Z,12.90
2022-07-28T03:00:44.300Z,13.00
2022-07-28T03:03:12.273Z,13.00
2022-07-28T03:05:41.525Z,13.00
2022-07-28T03:08:09.401Z,13.00
2022-07-28T03:10:36.390Z,13.00
2022-07-28T03:13:06.900Z,13.00
2022-07-28T03:15:35.334Z,13.00
2022-07-28T03:18:04.436Z,13.00
2022-07-28T03:20:31.453Z,13.10
2022-07-28T03:22:59.015Z,13.00
2022-07-28T03:25:37.102Z,13.10
2022-07-28T03:28:06.278Z,13.00
2022-07-28T03:30:38.509Z,13.00
2022-07-28T03:33:06.600Z,13.10
2022-07-28T03:35:38.998Z,13.10
2022-07-28T03:38:13.996Z,13.00
2022-07-28T03:40:46.032Z,13.00
2022-07-28T03:43:16.670Z,13.00
2022-07-28T03:45:46.693Z,13.10
2022-07-28T03:48:15.117Z,13.10
2022-07-28T03:50:42.377Z,13.20
2022-07-28T03:53:35.737Z,13.20
2022-07-28T03:56:03.421Z,13.30
2022-07-28T03:58:31.248Z,13.30
2022-07-28T04:00:58.834Z,13.30
2022-07-28T04:03:43.128Z,13.30
2022-07-28T04:06:12.902Z,13.20
2022-07-28T04:08:39.945Z,13.20
2022-07-28T04:11:07.061Z,13.30
2022-07-28T04:13:36.579Z,13.30
2022-07-28T04:16:04.085Z,13.30
2022-07-28T04:18:31.297Z,13.30
2022-07-28T04:20:58.482Z,13.40
2022-07-28T04:23:25.975Z,13.40
2022-07-28T04:25:53.173Z,13.50
2022-07-28T04:28:20.073Z,13.50
2022-07-28T04:30:47.329Z,13.50
2022-07-28T04:33:14.358Z,13.50
2022-07-28T04:35:41.422Z,13.60
2022-07-28T04:38:09.331Z,13.60
2022-07-28T04:40:37.070Z,13.60
2022-07-28T04:43:04.259Z,13.60
2022-07-28T04:45:31.241Z,13.60
2022-07-28T04:47:58.206Z,13.60
2022-07-28T04:50:25.241Z,13.70
2022-07-28T04:52:58.907Z,13.70
2022-07-28T04:55:26.153Z,13.70
2022-07-28T04:57:53.128Z,13.80
2022-07-28T05:00:20.457Z,13.80
2022-07-28T05:02:50.330Z,13.80
2022-07-28T05:05:17.481Z,13.80
2022-07-28T05:07:44.441Z,13.90
2022-07-28T05:10:12.766Z,13.90
2022-07-28T05:12:40.029Z,13.90
2022-07-28T05:15:08.044Z,13.90
2022-07-28T05:17:35.417Z,14.00
2022-07-28T05:20:03.640Z,14.00
2022-07-28T05:22:44.904Z,14.10
2022-07-28T05:25:23.628Z,14.10
2022-07-28T05:27:51.781Z,14.10
2022-07-28T05:30:20.183Z,14.20
2022-07-28T05:32:47.914Z,14.20
2022-07-28T05:35:16.312Z,14.20
2022-07-28T05:37:43.999Z,14.20
2022-07-28T05:40:15.900Z,14.20
2022-07-28T05:42:44.043Z,14.30
2022-07-28T05:45:16.235Z,14.30
2022-07-28T05:47:49.460Z,14.30
2022-07-28T05:50:17.890Z,14.30
2022-07-28T05:52:45.811Z,14.40
2022-07-28T05:55:13.237Z,14.40
2022-07-28T05:57:41.239Z,14.40
2022-07-28T06:00:11.321Z,14.50
2022-07-28T06:02:45.346Z,14.60
2022-07-28T06:05:12.505Z,14.70
2022-07-28T06:07:43.296Z,14.70
2022-07-28T06:10:17.356Z,14.70
2022-07-28T06:12:46.892Z,14.80
2022-07-28T06:15:16.189Z,14.80
2022-07-28T06:17:43.549Z,14.90
2022-07-28T06:20:12.004Z,14.90
2022-07-28T06:22:47.306Z,15.00
2022-07-28T06:25:15.821Z,14.90
2022-07-28T06:27:43.073Z,14.90
2022-07-28T06:30:10.483Z,14.90
2022-07-28T06:32:37.629Z,14.90
2022-07-28T06:35:05.970Z,15.00
2022-07-28T06:37:32.840Z,15.00
2022-07-28T06:39:59.729Z,15.00
2022-07-28T06:42:27.044Z,15.00
2022-07-28T06:45:01.293Z,15.00
2022-07-28T06:47:28.187Z,15.10
2022-07-28T06:49:55.090Z,15.10
2022-07-28T06:52:22.217Z,15.10
2022-07-28T06:54:53.059Z,15.20
2022-07-28T06:57:28.115Z,15.20
2022-07-28T07:00:03.657Z,15.30
2022-07-28T07:02:30.853Z,15.30
2022-07-28T07:04:58.120Z,15.40
2022-07-28T07:07:26.232Z,15.40
2022-07-28T07:09:53.282Z,15.50
2022-07-28T07:12:20.269Z,15.50
2022-07-28T07:14:47.118Z,15.50
2022-07-28T07:17:13.956Z,15.50
2022-07-28T07:19:40.892Z,15.50
2022-07-28T07:22:07.839Z,15.60
2022-07-28T07:24:35.373Z,15.60
2022-07-28T07:27:02.258Z,15.70
2022-07-28T07:29:30.362Z,15.70
2022-07-28T07:31:58.741Z,15.70
2022-07-28T07:34:26.270Z,15.80
2022-07-28T07:36:53.231Z,15.80
2022-07-28T07:39:20.160Z,15.80
2022-07-28T07:41:47.053Z,15.90
2022-07-28T07:44:14.286Z,15.90
2022-07-28T07:46:41.535Z,16.00
2022-07-28T07:49:08.555Z,16.00
2022-07-28T07:51:35.501Z,16.00
2022-07-28T07:54:02.403Z,16.10
2022-07-28T07:56:29.373Z,16.10
2022-07-28T07:58:57.233Z,16.20
2022-07-28T08:01:24.866Z,16.20
2022-07-28T08:03:52.011Z,16.20
2022-07-28T08:06:26.262Z,16.30
2022-07-28T08:08:54.956Z,16.30
2022-07-28T08:11:21.866Z,16.30
2022-07-28T08:13:48.830Z,16.40
2022-07-28T08:16:16.026Z,16.50
2022-07-28T08:18:44.023Z,16.60
2022-07-28T08:21:13.164Z,16.60
2022-07-28T08:23:40.235Z,16.60
2022-07-28T08:26:07.998Z,16.60
2022-07-28T08:28:35.030Z,16.60
2022-07-28T08:31:02.097Z,16.60
2022-07-28T08:33:30.003Z,16.60
2022-07-28T08:35:56.879Z,16.70
2022-07-28T08:38:23.903Z,16.70
2022-07-28T08:40:56.664Z,16.80
2022-07-28T08:43:29.490Z,16.80
2022-07-28T08:45:59.021Z,16.90
2022-07-28T08:48:30.514Z,17.00
2022-07-28T08:51:09.519Z,16.90
2022-07-28T08:53:37.824Z,16.90
2022-07-28T08:56:07.611Z,17.00
2022-07-28T08:58:37.073Z,17.10
2022-07-28T09:01:05.227Z,17.20
2022-07-28T09:03:32.397Z,17.20
2022-07-28T09:05:59.338Z,17.20
2022-07-28T09:08:26.625Z,17.10
2022-07-28T09:10:54.398Z,17.00
2022-07-28T09:13:21.508Z,17.00
2022-07-28T09:15:48.713Z,16.90
2022-07-28T09:18:17.368Z,17.00
2022-07-28T09:20:45.466Z,17.10
2022-07-28T09:23:42.242Z,17.20
2022-07-28T09:26:12.034Z,17.30
2022-07-28T09:28:57.149Z,17.40
2022-07-28T09:31:27.557Z,17.50
2022-07-28T09:34:03.844Z,17.50
2022-07-28T09:36:41.991Z,17.50
2022-07-28T09:39:09.159Z,17.50
2022-07-28T09:41:55.966Z,17.60
2022-07-28T09:44:24.628Z,17.70
2022-07-28T09:46:52.059Z,17.70
2022-07-28T09:49:19.585Z,17.70
2022-07-28T09:52:04.100Z,17.70
2022-07-28T09:54:31.148Z,17.70
2022-07-28T09:56:58.201Z,17.70
2022-07-28T09:59:25.422Z,17.70
2022-07-28T10:02:02.442Z,17.60
2022-07-28T10:04:34.136Z,17.60
2022-07-28T10:07:05.837Z,17.60
2022-07-28T10:09:33.347Z,17.50
2022-07-28T10:12:25.797Z,17.50
2022-07-28T10:14:57.484Z,17.40
2022-07-28T10:17:27.842Z,17.50
2022-07-28T10:19:57.929Z,17.70
2022-07-28T10:22:28.596Z,17.80
2022-07-28T10:24:57.578Z,17.90
2022-07-28T10:27:26.017Z,17.90
2022-07-28T10:29:58.751Z,17.90
2022-07-28T10:32:26.782Z,18.00
2022-07-28T10:35:04.812Z,18.00
2022-07-28T10:37:37.426Z,18.10
2022-07-28T10:40:10.881Z,18.10
2022-07-28T10:42:40.730Z,18.10
2022-07-28T10:45:11.384Z,18.20
2022-07-28T10:47:38.352Z,18.20
2022-07-28T10:50:05.931Z,18.20
2022-07-28T10:52:47.254Z,18.20
2022-07-28T10:55:34.532Z,18.30
2022-07-28T10:58:25.979Z,18.30
2022-07-28T11:00:57.125Z,18.40
2022-07-28T11:03:44.773Z,18.40
2022-07-28T11:06:31.266Z,18.40
2022-07-28T11:09:00.335Z,18.50
2022-07-28T11:11:50.246Z,18.60
2022-07-28T11:14:24.424Z,18.50
2022-07-28T11:17:00.851Z,18.60
2022-07-28T11:19:40.805Z,18.60
2022-07-28T11:22:24.575Z,18.60
2022-07-28T11:24:58.277Z,18.50
2022-07-28T11:27:45.405Z,18.40
2022-07-28T11:30:35.955Z,18.40
2022-07-28T11:33:05.143Z,18.40
2022-07-28T11:35:39.063Z,18.40
2022-07-28T11:38:05.996Z,18.30
2022-07-28T11:40:33.274Z,18.30
2022-07-28T11:43:30.629Z,18.40
2022-07-28T11:46:10.299Z,18.30
2022-07-28T11:48:40.202Z,18.30
2022-07-28T11:51:07.253Z,18.30
2022-07-28T11:53:47.348Z,18.20
2022-07-28T11:56:25.485Z,18.30
2022-07-28T11:59:00.698Z,18.40
2022-07-28T12:01:27.730Z,18.50
2022-07-28T12:04:00.707Z,18.50
2022-07-28T12:06:40.447Z,18.60
2022-07-28T12:09:09.558Z,18.60
2022-07-28T12:11:44.083Z,18.60
2022-07-28T12:14:17.008Z,18.60
2022-07-28T12:16:49.645Z,18.70
2022-07-28T12:19:18.916Z,18.60
2022-07-28T12:21:49.227Z,18.60
2022-07-28T12:24:27.467Z,18.60
2022-07-28T12:26:55.344Z,18.70
2022-07-28T12:29:23.931Z,18.60
2022-07-28T12:32:02.544Z,18.60
2022-07-28T12:34:30.805Z,18.70
2022-07-28T12:37:11.156Z,18.70
2022-07-28T12:39:42.683Z,18.70
2022-07-28T12:42:11.540Z,18.60
2022-07-28T12:44:43.279Z,18.60
2022-07-28T12:47:12.740Z,18.60
2022-07-28T12:49:41.761Z,18.50
2022-07-28T12:52:21.912Z,18.50
2022-07-28T12:54:55.043Z,18.50
2022-07-28T12:57:50.516Z,18.50
2022-07-28T13:00:24.005Z,18.50
2022-07-28T13:02:55.342Z,18.50
2022-07-28T13:05:53.985Z,18.60
2022-07-28T13:08:22.882Z,18.50
2022-07-28T13:10:52.347Z,18.40
2022-07-28T13:13:23.917Z,18.40
2022-07-28T13:16:17.199Z,18.40
2022-07-28T13:18:53.526Z,18.40
2022-07-28T13:21:56.107Z,18.50
2022-07-28T13:24:26.702Z,18.50
2022-07-28T13:26:53.733Z,18.50
2022-07-28T13:29:20.780Z,18.50
2022-07-28T13:31:47.721Z,18.40
2022-07-28T13:34:15.040Z,18.40
2022-07-28T13:36:42.264Z,18.50
2022-07-28T13:39:13.743Z,18.60
2022-07-28T13:41:57.941Z,18.60
2022-07-28T13:44:30.296Z,18.60
2022-07-28T13:46:59.352Z,18.60
2022-07-28T13:49:28.097Z,18.60
2022-07-28T13:51:55.837Z,18.70
2022-07-28T13:54:25.258Z,18.70
2022-07-28T13:57:10.957Z,18.70
2022-07-28T13:59:39.457Z,18.70
2022-07-28T14:02:06.625Z,18.80
2022-07-28T14:04:46.065Z,18.90
2022-07-28T14:07:21.021Z,18.80
2022-07-28T14:09:50.554Z,18.80
2022-07-28T14:12:18.148Z,18.80
2022-07-28T14:14:48.088Z,18.90
2022-07-28T14:17:43.849Z,18.90
2022-07-28T14:20:12.469Z,19.00
2022-07-28T14:22:39.449Z,19.00
2022-07-28T14:25:06.717Z,19.00
2022-07-28T14:27:34.344Z,18.90
2022-07-28T14:30:03.623Z,18.90
2022-07-28T14:32:31.639Z,18.90
2022-07-28T14:34:58.643Z,18.90
2022-07-28T14:37:25.612Z,19.00
2022-07-28T14:39:52.472Z,19.00
2022-07-28T14:42:19.631Z,19.00
2022-07-28T14:44:46.552Z,19.00
2022-07-28T14:47:13.494Z,19.10
2022-07-28T14:49:57.719Z,19.10
2022-07-28T14:52:26.755Z,19.10
2022-07-28T14:54:57.626Z,19.00
2022-07-28T14:57:52.131Z,19.00
2022-07-28T15:00:14.647Z,18.90
2022-07-28T15:02:42.047Z,18.80
2022-07-28T15:05:12.699Z,18.80
2022-07-28T15:07:39.611Z,18.80
2022-07-28T15:10:07.166Z,18.80
2022-07-28T15:12:34.319Z,18.80
2022-07-28T15:15:01.366Z,18.80
2022-07-28T15:17:28.303Z,18.80
2022-07-28T15:19:56.846Z,18.90
2022-07-28T15:22:26.532Z,18.90
2022-07-28T15:24:53.701Z,18.90
2022-07-28T15:27:20.695Z,18.90
2022-07-28T15:29:52.283Z,18.90
2022-07-28T15:32:27.250Z,18.80
2022-07-28T15:34:55.670Z,18.90
2022-07-28T15:37:23.090Z,18.90
2022-07-28T15:39:50.011Z,18.90
2022-07-28T15:42:17.282Z,18.90
2022-07-28T15:44:44.280Z,18.90
2022-07-28T15:47:11.294Z,18.90
2022-07-28T15:49:38.679Z,18.90
2022-07-28T15:52:06.061Z,18.90
2022-07-28T15:54:33.287Z,18.90
2022-07-28T15:57:00.198Z,18.90
2022-07-28T15:59:50.243Z,18.90
2022-07-28T16:02:17.848Z,18.90
2022-07-28T16:04:47.831Z,18.90
2022-07-28T16:07:25.430Z,19.00
2022-07-28T16:09:55.326Z,19.00
2022-07-28T16:12:25.852Z,19.00
2022-07-28T16:14:56.072Z,19.00
2022-07-28T16:17:23.742Z,19.00
2022-07-28T16:19:54.023Z,19.10
2022-07-28T16:22:21.502Z,19.00
2022-07-28T16:24:50.747Z,19.10
2022-07-28T16:27:17.775Z,19.10
2022-07-28T16:29:45.012Z,19.10
2022-07-28T16:32:11.990Z,19.10
2022-07-28T16:34:38.960Z,19.10
2022-07-28T16:37:06.290Z,19.10
2022-07-28T16:39:34.310Z,19.10
2022-07-28T16:42:01.612Z,19.10
2022-07-28T16:44:29.084Z,19.10
2022-07-28T16:46:56.547Z,19.10
2022-07-28T16:49:24.188Z,19.10
2022-07-28T16:51:51.281Z,19.20
2022-07-28T16:54:18.722Z,19.10
2022-07-28T16:56:46.030Z,19.20
2022-07-28T16:59:13.317Z,19.10
2022-07-28T17:01:45.651Z,19.10
2022-07-28T17:04:13.624Z,19.10
2022-07-28T17:06:41.394Z,19.10
2022-07-28T17:09:08.244Z,19.10
2022-07-28T17:11:35.710Z,19.10
2022-07-28T17:14:03.227Z,19.20
2022-07-28T17:16:30.693Z,19.20
2022-07-28T17:18:57.795Z,19.20
2022-07-28T17:21:25.776Z,19.20
2022-07-28T17:23:53.128Z,19.20
2022-07-28T17:29:07.333Z,19.20
2022-07-28T17:31:34.365Z,19.10
2022-07-28T17:34:01.524Z,19.20
2022-07-28T17:36:31.881Z,19.20
2022-07-28T17:38:59.236Z,19.20
2022-07-28T17:41:26.412Z,19.20
2022-07-28T17:43:53.356Z,19.20
2022-07-28T17:46:21.302Z,19.20
2022-07-28T17:48:48.425Z,19.10
2022-07-28T17:51:15.593Z,19.10
2022-07-28T17:53:45.161Z,19.10
2022-07-28T17:56:12.981Z,19.10
2022-07-28T17:58:41.044Z,19.10
2022-07-28T18:01:12.783Z,19.10
2022-07-28T18:03:57.144Z,19.10
2022-07-28T18:06:34.888Z,19.00
2022-07-28T18:09:06.867Z,19.00
2022-07-28T18:11:36.037Z,19.00
2022-07-28T18:14:05.476Z,19.00
2022-07-28T18:16:35.674Z,19.00
2022-07-28T18:19:03.178Z,19.00
2022-07-28T18:21:30.112Z,19.00
2022-07-28T18:23:57.086Z,19.00
2022-07-28T18:26:23.999Z,19.00
2022-07-28T18:28:51.028Z,18.90
2022-07-28T18:31:18.291Z,18.90
2022-07-28T18:33:45.280Z,18.90
2022-07-28T18:36:12.200Z,18.80
2022-07-28T18:38:39.098Z,18.80
2022-07-28T18:41:05.976Z,18.80
2022-07-28T18:43:32.965Z,18.70
2022-07-28T18:45:59.937Z,18.70
2022-07-28T18:48:26.929Z,18.70
2022-07-28T18:50:53.930Z,18.60
2022-07-28T18:53:20.814Z,18.60
2022-07-28T18:55:47.771Z,18.50
2022-07-28T18:58:14.639Z,18.50
2022-07-28T19:00:41.682Z,18.40
2022-07-28T19:03:08.659Z,18.40
2022-07-28T19:05:36.961Z,18.30
2022-07-28T19:08:05.592Z,18.30
2022-07-28T19:10:32.682Z,18.20
2022-07-28T19:12:59.965Z,18.20
2022-07-28T19:15:26.886Z,18.10
2022-07-28T19:18:10.555Z,18.00
2022-07-28T19:20:39.919Z,17.90
2022-07-28T19:23:06.945Z,17.90
2022-07-28T19:25:36.077Z,17.80
2022-07-28T19:28:03.537Z,17.70
2022-07-28T19:30:32.287Z,17.60
2022-07-28T19:32:59.452Z,17.60
2022-07-28T19:35:26.413Z,17.50
2022-07-28T19:37:53.586Z,17.40
2022-07-28T19:40:20.520Z,17.40
2022-07-28T19:42:48.591Z,17.30
2022-07-28T19:45:16.866Z,17.20
2022-07-28T19:47:43.724Z,17.20
2022-07-28T19:50:10.664Z,17.10
2022-07-28T19:52:37.843Z,17.00
2022-07-28T19:55:06.061Z,17.00
2022-07-28T19:57:34.427Z,16.90
2022-07-28T20:00:04.661Z,16.80
2022-07-28T20:02:45.511Z,16.80
2022-07-28T20:05:14.305Z,16.70
2022-07-28T20:07:42.465Z,16.70
2022-07-28T20:10:15.086Z,16.60
2022-07-28T20:12:45.552Z,16.60
2022-07-28T20:15:13.183Z,16.50
2022-07-28T20:17:40.490Z,16.40
2022-07-28T20:20:10.317Z,16.40
2022-07-28T20:22:39.337Z,16.30
2022-07-28T20:25:09.153Z,16.30
2022-07-28T20:27:41.175Z,16.20
2022-07-28T20:30:13.208Z,16.20
2022-07-28T20:32:42.292Z,16.20
2022-07-28T20:35:10.747Z,16.20
2022-07-28T20:37:38.377Z,16.20
2022-07-28T20:40:07.293Z,16.10
2022-07-28T20:42:34.825Z,16.10
2022-07-28T20:45:01.864Z,16.00
2022-07-28T20:47:34.569Z,15.90
2022-07-28T20:50:01.995Z,15.90
2022-07-28T20:52:29.053Z,15.90
2022-07-28T20:54:55.960Z,15.80
2022-07-28T20:57:23.666Z,15.80
2022-07-28T20:59:52.102Z,15.70
2022-07-28T21:02:23.057Z,15.70
2022-07-28T21:04:50.821Z,15.70
2022-07-28T21:08:00.217Z,15.70
2022-07-28T21:10:09.991Z,15.60
2022-07-28T21:12:38.020Z,15.70
2022-07-28T21:15:06.028Z,15.70
2022-07-28T21:17:33.131Z,15.60
2022-07-28T21:20:00.224Z,15.60
2022-07-28T21:22:27.201Z,15.60
2022-07-28T21:24:55.584Z,15.60
2022-07-28T21:27:23.609Z,15.50
2022-07-28T21:32:17.778Z,15.50
2022-07-28T21:34:44.745Z,15.40
2022-07-28T21:37:12.775Z,15.40
2022-07-28T21:39:40.153Z,15.40
2022-07-28T21:42:08.743Z,15.40
2022-07-28T21:44:36.974Z,15.30
2022-07-28T21:47:04.214Z,15.40
2022-07-28T21:49:32.192Z,15.30
2022-07-28T21:51:59.380Z,15.30
2022-07-28T21:54:26.803Z,15.20
2022-07-28T21:56:54.038Z,15.30
2022-07-28T21:59:20.994Z,15.20
2022-07-28T22:01:48.161Z,15.20
2022-07-28T22:04:15.605Z,15.20
2022-07-28T22:06:46.003Z,15.10
2022-07-28T22:09:14.506Z,15.10
2022-07-28T22:11:41.891Z,15.10
2022-07-28T22:14:09.095Z,15.20
2022-07-28T22:16:36.060Z,15.10
2022-07-28T22:19:03.833Z,15.10
2022-07-28T22:21:31.107Z,15.10
2022-07-28T22:23:57.975Z,15.10
2022-07-28T22:26:24.849Z,15.00
2022-07-28T22:28:51.725Z,15.00
2022-07-28T22:31:18.714Z,15.00
2022-07-28T22:33:45.878Z,14.90
2022-07-28T22:36:12.744Z,14.90
2022-07-28T22:38:39.829Z,14.90
2022-07-28T22:41:06.919Z,14.90
2022-07-28T22:43:34.158Z,14.80
2022-07-28T22:46:01.418Z,14.80
2022-07-28T22:48:28.505Z,14.80
2022-07-28T22:50:55.617Z,14.80
2022-07-28T22:53:22.571Z,14.70
2022-07-28T22:55:49.537Z,14.70
2022-07-28T22:58:16.675Z,14.70
2022-07-28T23:00:43.736Z,14.70
2022-07-28T23:03:13.214Z,14.70
2022-07-28T23:05:42.675Z,14.60
2022-07-28T23:08:09.553Z,14.60
2022-07-28T23:10:37.561Z,14.60
2022-07-28T23:13:04.572Z,14.50
2022-07-28T23:15:39.634Z,14.50
2022-07-28T23:18:14.195Z,14.50
2022-07-28T23:20:42.662Z,14.50
2022-07-28T23:23:11.128Z,14.40
2022-07-28T23:25:42.573Z,14.40
2022-07-28T23:28:09.588Z,14.40
2022-07-28T23:30:36.465Z,14.30
2022-07-28T23:33:04.311Z,14.30
2022-07-28T23:35:31.251Z,14.30
2022-07-28T23:37:58.149Z,14.30
2022-07-28T23:40:25.245Z,14.20
2022-07-28T23:42:52.155Z,14.20
2022-07-28T23:45:19.169Z,14.20
2022-07-28T23:47:46.123Z,14.10
2022-07-28T23:50:13.037Z,14.10
2022-07-28T23:52:39.972Z,14.10
2022-07-28T23:55:07.451Z,14.10
2022-07-28T23:57:34.389Z,14.10
